sensor_id;sensor_type;location;lat;lon;timestamp;pressure;altitude;pressure_sealevel;temperature
71897;BMP280;59767;51.344;12.362;2022-08-06T00:03:00;101014.88;;;19.01
71897;BMP280;59767;51.344;12.362;2022-08-06T00:06:05;101015.47;;;18.96
71897;BMP280;59767;51.344;12.362;2022-08-06T00:09:14;101025.53;;;18.98
71897;BMP280;59767;51.344;12.362;2022-08-06T00:12:18;101014.28;;;18.92
71897;BMP280;59767;51.344;12.362;2022-08-06T00:15:22;101009.31;;;18.91
71897;BMP280;59767;51.344;12.362;2022-08-06T00:18:47;101014.25;;;18.86
71897;BMP280;59767;51.344;12.362;2022-08-06T00:21:53;101014.63;;;18.83
71897;BMP280;59767;51.344;12.362;2022-08-06T00:24:57;101010.44;;;18.69
71897;BMP280;59767;51.344;12.362;2022-08-06T00:28:02;101008.06;;;18.61
71897;BMP280;59767;51.344;12.362;2022-08-06T00:31:14;101003.91;;;18.60
71897;BMP280;59767;51.344;12.362;2022-08-06T00:34:19;100995.00;;;18.56
71897;BMP280;59767;51.344;12.362;2022-08-06T00:37:24;101011.34;;;18.48
71897;BMP280;59767;51.344;12.362;2022-08-06T00:40:50;101011.53;;;18.40
71897;BMP280;59767;51.344;12.362;2022-08-06T00:44:02;101015.63;;;18.35
71897;BMP280;59767;51.344;12.362;2022-08-06T00:47:07;101007.53;;;18.31
71897;BMP280;59767;51.344;12.362;2022-08-06T00:50:31;101010.84;;;18.19
71897;BMP280;59767;51.344;12.362;2022-08-06T00:53:35;101017.09;;;18.10
71897;BMP280;59767;51.344;12.362;2022-08-06T00:56:40;101015.91;;;18.06
71897;BMP280;59767;51.344;12.362;2022-08-06T00:59:47;101007.97;;;18.01
71897;BMP280;59767;51.344;12.362;2022-08-06T01:02:54;101008.16;;;17.99
71897;BMP280;59767;51.344;12.362;2022-08-06T01:05:58;101016.25;;;17.96
71897;BMP280;59767;51.344;12.362;2022-08-06T01:09:23;101023.47;;;17.93
71897;BMP280;59767;51.344;12.362;2022-08-06T01:12:27;101028.81;;;17.91
71897;BMP280;59767;51.344;12.362;2022-08-06T01:15:40;101031.00;;;17.94
71897;BMP280;59767;51.344;12.362;2022-08-06T01:26:44;101056.50;;;17.75
71897;BMP280;59767;51.344;12.362;2022-08-06T01:30:03;101055.72;;;17.74
71897;BMP280;59767;51.344;12.362;2022-08-06T01:33:16;101056.50;;;17.75
71897;BMP280;59767;51.344;12.362;2022-08-06T01:40:07;101063.84;;;17.57
71897;BMP280;59767;51.344;12.362;2022-08-06T01:43:14;101067.38;;;17.56
71897;BMP280;59767;51.344;12.362;2022-08-06T01:46:43;101072.25;;;17.51
71897;BMP280;59767;51.344;12.362;2022-08-06T01:49:52;101062.75;;;17.45
71897;BMP280;59767;51.344;12.362;2022-08-06T01:53:08;101070.44;;;17.45
71897;BMP280;59767;51.344;12.362;2022-08-06T01:56:20;101080.31;;;17.48
71897;BMP280;59767;51.344;12.362;2022-08-06T01:59:37;101080.31;;;17.48
71897;BMP280;59767;51.344;12.362;2022-08-06T02:02:43;101076.34;;;17.45
71897;BMP280;59767;51.344;12.362;2022-08-06T02:05:51;101088.38;;;17.45
71897;BMP280;59767;51.344;12.362;2022-08-06T02:09:08;101077.28;;;17.38
71897;BMP280;59767;51.344;12.362;2022-08-06T02:12:27;101077.81;;;17.33
71897;BMP280;59767;51.344;12.362;2022-08-06T02:15:36;101094.34;;;17.31
71897;BMP280;59767;51.344;12.362;2022-08-06T02:19:02;101103.03;;;17.30
71897;BMP280;59767;51.344;12.362;2022-08-06T02:22:17;101109.81;;;17.23
71897;BMP280;59767;51.344;12.362;2022-08-06T02:25:31;101113.03;;;17.25
71897;BMP280;59767;51.344;12.362;2022-08-06T02:28:38;101116.38;;;17.25
71897;BMP280;59767;51.344;12.362;2022-08-06T02:31:45;101126.63;;;17.25
71897;BMP280;59767;51.344;12.362;2022-08-06T02:34:54;101130.97;;;17.25
71897;BMP280;59767;51.344;12.362;2022-08-06T02:38:02;101139.44;;;17.25
71897;BMP280;59767;51.344;12.362;2022-08-06T02:44:50;101146.25;;;17.18
71897;BMP280;59767;51.344;12.362;2022-08-06T02:48:04;101144.47;;;17.19
71897;BMP280;59767;51.344;12.362;2022-08-06T02:51:17;101149.72;;;17.11
71897;BMP280;59767;51.344;12.362;2022-08-06T02:54:51;101150.56;;;17.03
71897;BMP280;59767;51.344;12.362;2022-08-06T02:58:13;101156.31;;;17.05
71897;BMP280;59767;51.344;12.362;2022-08-06T03:01:22;101164.00;;;17.05
71897;BMP280;59767;51.344;12.362;2022-08-06T03:04:29;101168.66;;;17.02
71897;BMP280;59767;51.344;12.362;2022-08-06T03:07:38;101165.06;;;16.96
71897;BMP280;59767;51.344;12.362;2022-08-06T03:10:44;101155.56;;;16.90
71897;BMP280;59767;51.344;12.362;2022-08-06T03:13:49;101159.88;;;16.90
71897;BMP280;59767;51.344;12.362;2022-08-06T03:16:55;101158.63;;;16.86
71897;BMP280;59767;51.344;12.362;2022-08-06T03:20:02;101160.56;;;16.84
71897;BMP280;59767;51.344;12.362;2022-08-06T03:23:08;101164.19;;;16.75
71897;BMP280;59767;51.344;12.362;2022-08-06T03:26:15;101168.41;;;16.68
71897;BMP280;59767;51.344;12.362;2022-08-06T03:29:24;101171.91;;;16.67
71897;BMP280;59767;51.344;12.362;2022-08-06T03:32:30;101180.25;;;16.69
71897;BMP280;59767;51.344;12.362;2022-08-06T03:35:58;101184.72;;;16.67
71897;BMP280;59767;51.344;12.362;2022-08-06T03:39:06;101191.88;;;16.57
71897;BMP280;59767;51.344;12.362;2022-08-06T03:42:12;101198.13;;;16.54
71897;BMP280;59767;51.344;12.362;2022-08-06T03:45:17;101187.78;;;16.48
71897;BMP280;59767;51.344;12.362;2022-08-06T03:48:40;101197.06;;;16.49
71897;BMP280;59767;51.344;12.362;2022-08-06T03:51:47;101203.94;;;16.48
71897;BMP280;59767;51.344;12.362;2022-08-06T03:55:02;101218.50;;;16.48
71897;BMP280;59767;51.344;12.362;2022-08-06T03:58:10;101236.25;;;16.49
71897;BMP280;59767;51.344;12.362;2022-08-06T04:01:35;101239.78;;;16.48
71897;BMP280;59767;51.344;12.362;2022-08-06T04:04:54;101236.75;;;16.45
71897;BMP280;59767;51.344;12.362;2022-08-06T04:08:02;101240.97;;;16.38
71897;BMP280;59767;51.344;12.362;2022-08-06T04:11:08;101236.81;;;16.37
71897;BMP280;59767;51.344;12.362;2022-08-06T04:14:34;101247.03;;;16.37
71897;BMP280;59767;51.344;12.362;2022-08-06T04:17:44;101245.28;;;16.37
71897;BMP280;59767;51.344;12.362;2022-08-06T04:20:54;101256.63;;;16.43
71897;BMP280;59767;51.344;12.362;2022-08-06T04:24:18;101261.56;;;16.44
71897;BMP280;59767;51.344;12.362;2022-08-06T04:27:27;101256.28;;;16.46
71897;BMP280;59767;51.344;12.362;2022-08-06T04:30:34;101265.72;;;16.45
71897;BMP280;59767;51.344;12.362;2022-08-06T04:33:42;101269.09;;;16.46
71897;BMP280;59767;51.344;12.362;2022-08-06T04:36:56;101280.28;;;16.45
71897;BMP280;59767;51.344;12.362;2022-08-06T04:40:02;101278.69;;;16.44
71897;BMP280;59767;51.344;12.362;2022-08-06T04:43:09;101279.50;;;16.44
71897;BMP280;59767;51.344;12.362;2022-08-06T04:46:13;101286.81;;;16.47
71897;BMP280;59767;51.344;12.362;2022-08-06T04:49:23;101300.84;;;16.51
71897;BMP280;59767;51.344;12.362;2022-08-06T04:52:47;101300.75;;;16.45
71897;BMP280;59767;51.344;12.362;2022-08-06T04:55:52;101302.38;;;16.46
71897;BMP280;59767;51.344;12.362;2022-08-06T04:59:06;101311.16;;;16.43
71897;BMP280;59767;51.344;12.362;2022-08-06T05:02:11;101315.75;;;16.48
71897;BMP280;59767;51.344;12.362;2022-08-06T05:05:16;101310.53;;;16.41
71897;BMP280;59767;51.344;12.362;2022-08-06T05:08:27;101311.94;;;16.44
71897;BMP280;59767;51.344;12.362;2022-08-06T05:11:37;101318.53;;;16.38
71897;BMP280;59767;51.344;12.362;2022-08-06T05:15:24;101320.66;;;16.35
71897;BMP280;59767;51.344;12.362;2022-08-06T05:18:34;101328.66;;;16.32
71897;BMP280;59767;51.344;12.362;2022-08-06T05:22:00;101320.81;;;16.33
71897;BMP280;59767;51.344;12.362;2022-08-06T05:25:14;101335.22;;;16.34
71897;BMP280;59767;51.344;12.362;2022-08-06T05:28:30;101334.25;;;16.27
71897;BMP280;59767;51.344;12.362;2022-08-06T05:31:36;101337.16;;;16.24
71897;BMP280;59767;51.344;12.362;2022-08-06T05:34:46;101345.97;;;16.22
71897;BMP280;59767;51.344;12.362;2022-08-06T05:37:54;101348.22;;;16.25
71897;BMP280;59767;51.344;12.362;2022-08-06T05:41:09;101346.88;;;16.29
71897;BMP280;59767;51.344;12.362;2022-08-06T05:44:13;101351.75;;;16.24
71897;BMP280;59767;51.344;12.362;2022-08-06T05:47:21;101362.13;;;16.22
71897;BMP280;59767;51.344;12.362;2022-08-06T05:50:30;101358.09;;;16.28
71897;BMP280;59767;51.344;12.362;2022-08-06T05:53:41;101356.13;;;16.38
71897;BMP280;59767;51.344;12.362;2022-08-06T05:57:12;101359.41;;;16.46
71897;BMP280;59767;51.344;12.362;2022-08-06T06:00:20;101366.00;;;16.49
71897;BMP280;59767;51.344;12.362;2022-08-06T06:03:46;101368.84;;;16.54
71897;BMP280;59767;51.344;12.362;2022-08-06T06:06:53;101361.59;;;16.57
71897;BMP280;59767;51.344;12.362;2022-08-06T06:09:57;101367.00;;;16.62
71897;BMP280;59767;51.344;12.362;2022-08-06T06:13:07;101369.34;;;16.72
71897;BMP280;59767;51.344;12.362;2022-08-06T06:23:53;101375.59;;;16.92
71897;BMP280;59767;51.344;12.362;2022-08-06T06:27:05;101381.19;;;16.95
71897;BMP280;59767;51.344;12.362;2022-08-06T06:30:50;101375.81;;;17.05
71897;BMP280;59767;51.344;12.362;2022-08-06T06:37:34;101375.53;;;17.37
71897;BMP280;59767;51.344;12.362;2022-08-06T06:40:49;101377.56;;;17.56
71897;BMP280;59767;51.344;12.362;2022-08-06T06:44:17;101376.91;;;17.62
71897;BMP280;59767;51.344;12.362;2022-08-06T06:47:58;101378.41;;;17.71
71897;BMP280;59767;51.344;12.362;2022-08-06T06:51:10;101384.94;;;17.73
71897;BMP280;59767;51.344;12.362;2022-08-06T06:54:40;101384.56;;;17.76
71897;BMP280;59767;51.344;12.362;2022-08-06T06:57:54;101385.09;;;18.01
71897;BMP280;59767;51.344;12.362;2022-08-06T07:01:00;101392.41;;;18.18
71897;BMP280;59767;51.344;12.362;2022-08-06T07:04:17;101384.81;;;18.10
71897;BMP280;59767;51.344;12.362;2022-08-06T07:07:23;101378.59;;;18.19
71897;BMP280;59767;51.344;12.362;2022-08-06T07:10:28;101384.25;;;18.29
71897;BMP280;59767;51.344;12.362;2022-08-06T07:13:36;101393.25;;;18.25
71897;BMP280;59767;51.344;12.362;2022-08-06T07:16:55;101389.03;;;18.53
71897;BMP280;59767;51.344;12.362;2022-08-06T07:20:06;101393.63;;;18.79
71897;BMP280;59767;51.344;12.362;2022-08-06T07:23:12;101394.81;;;19.04
71897;BMP280;59767;51.344;12.362;2022-08-06T07:26:42;101401.06;;;19.22
71897;BMP280;59767;51.344;12.362;2022-08-06T07:29:54;101388.78;;;19.18
71897;BMP280;59767;51.344;12.362;2022-08-06T07:33:04;101393.78;;;19.26
71897;BMP280;59767;51.344;12.362;2022-08-06T07:36:12;101398.53;;;19.29
71897;BMP280;59767;51.344;12.362;2022-08-06T07:39:29;101398.25;;;19.45
71897;BMP280;59767;51.344;12.362;2022-08-06T07:42:37;101402.88;;;19.55
71897;BMP280;59767;51.344;12.362;2022-08-06T07:45:43;101404.91;;;19.66
71897;BMP280;59767;51.344;12.362;2022-08-06T07:49:04;101409.28;;;20.19
71897;BMP280;59767;51.344;12.362;2022-08-06T07:52:14;101409.16;;;20.92
71897;BMP280;59767;51.344;12.362;2022-08-06T07:55:22;101402.97;;;21.19
71897;BMP280;59767;51.344;12.362;2022-08-06T07:58:40;101400.59;;;21.75
71897;BMP280;59767;51.344;12.362;2022-08-06T08:01:49;101413.78;;;23.20
71897;BMP280;59767;51.344;12.362;2022-08-06T08:04:53;101422.56;;;24.71
71897;BMP280;59767;51.344;12.362;2022-08-06T08:08:19;101421.25;;;25.47
71897;BMP280;59767;51.344;12.362;2022-08-06T08:11:28;101421.06;;;26.10
71897;BMP280;59767;51.344;12.362;2022-08-06T08:14:52;101432.69;;;25.07
71897;BMP280;59767;51.344;12.362;2022-08-06T08:17:57;101415.22;;;24.57
71897;BMP280;59767;51.344;12.362;2022-08-06T08:21:02;101415.31;;;23.75
71897;BMP280;59767;51.344;12.362;2022-08-06T08:24:11;101422.34;;;23.20
71897;BMP280;59767;51.344;12.362;2022-08-06T08:27:15;101427.81;;;24.19
71897;BMP280;59767;51.344;12.362;2022-08-06T08:30:25;101436.38;;;25.50
71897;BMP280;59767;51.344;12.362;2022-08-06T08:33:35;101446.81;;;26.11
71897;BMP280;59767;51.344;12.362;2022-08-06T08:36:39;101435.66;;;26.86
71897;BMP280;59767;51.344;12.362;2022-08-06T08:39:43;101427.88;;;27.13
71897;BMP280;59767;51.344;12.362;2022-08-06T08:42:49;101421.22;;;26.58
71897;BMP280;59767;51.344;12.362;2022-08-06T08:45:59;101436.88;;;26.41
71897;BMP280;59767;51.344;12.362;2022-08-06T08:49:07;101433.91;;;25.04
71897;BMP280;59767;51.344;12.362;2022-08-06T08:52:26;101422.78;;;24.70
71897;BMP280;59767;51.344;12.362;2022-08-06T08:55:35;101416.44;;;25.11
71897;BMP280;59767;51.344;12.362;2022-08-06T08:59:01;101427.53;;;23.97
71897;BMP280;59767;51.344;12.362;2022-08-06T09:02:25;101434.63;;;23.25
71897;BMP280;59767;51.344;12.362;2022-08-06T09:05:31;101432.09;;;24.13
71897;BMP280;59767;51.344;12.362;2022-08-06T09:08:38;101425.38;;;23.94
71897;BMP280;59767;51.344;12.362;2022-08-06T09:12:02;101425.81;;;22.90
71897;BMP280;59767;51.344;12.362;2022-08-06T09:15:27;101435.34;;;23.32
71897;BMP280;59767;51.344;12.362;2022-08-06T09:18:35;101420.81;;;23.31
71897;BMP280;59767;51.344;12.362;2022-08-06T09:21:39;101425.13;;;23.84
71897;BMP280;59767;51.344;12.362;2022-08-06T09:24:46;101424.66;;;23.76
71897;BMP280;59767;51.344;12.362;2022-08-06T09:27:50;101422.06;;;23.76
71897;BMP280;59767;51.344;12.362;2022-08-06T09:31:06;101428.06;;;23.40
71897;BMP280;59767;51.344;12.362;2022-08-06T09:34:51;101427.22;;;23.46
71897;BMP280;59767;51.344;12.362;2022-08-06T09:38:04;101421.06;;;23.59
71897;BMP280;59767;51.344;12.362;2022-08-06T09:41:11;101420.38;;;23.52
71897;BMP280;59767;51.344;12.362;2022-08-06T09:44:18;101411.81;;;23.33
71897;BMP280;59767;51.344;12.362;2022-08-06T09:47:41;101414.38;;;23.22
71897;BMP280;59767;51.344;12.362;2022-08-06T09:50:50;101416.78;;;23.35
71897;BMP280;59767;51.344;12.362;2022-08-06T09:53:58;101411.38;;;23.00
71897;BMP280;59767;51.344;12.362;2022-08-06T09:57:24;101420.66;;;23.26
71897;BMP280;59767;51.344;12.362;2022-08-06T10:00:38;101428.00;;;23.29
71897;BMP280;59767;51.344;12.362;2022-08-06T10:03:43;101420.28;;;23.22
71897;BMP280;59767;51.344;12.362;2022-08-06T10:07:07;101420.16;;;22.75
71897;BMP280;59767;51.344;12.362;2022-08-06T10:10:13;101419.91;;;22.83
71897;BMP280;59767;51.344;12.362;2022-08-06T10:13:37;101418.41;;;22.75
71897;BMP280;59767;51.344;12.362;2022-08-06T10:20:16;101412.28;;;22.70
71897;BMP280;59767;51.344;12.362;2022-08-06T10:23:23;101423.13;;;22.78
71897;BMP280;59767;51.344;12.362;2022-08-06T10:26:29;101422.59;;;22.52
71897;BMP280;59767;51.344;12.362;2022-08-06T10:29:58;101418.78;;;22.55
71897;BMP280;59767;51.344;12.362;2022-08-06T10:33:10;101415.25;;;22.18
71897;BMP280;59767;51.344;12.362;2022-08-06T10:36:31;101410.50;;;21.84
71897;BMP280;59767;51.344;12.362;2022-08-06T10:39:42;101424.91;;;21.98
71897;BMP280;59767;51.344;12.362;2022-08-06T10:43:09;101411.94;;;22.36
71897;BMP280;59767;51.344;12.362;2022-08-06T10:46:15;101408.13;;;22.69
71897;BMP280;59767;51.344;12.362;2022-08-06T10:49:21;101402.91;;;23.11
71897;BMP280;59767;51.344;12.362;2022-08-06T10:52:46;101412.78;;;23.03
71897;BMP280;59767;51.344;12.362;2022-08-06T10:55:50;101421.59;;;22.77
71897;BMP280;59767;51.344;12.362;2022-08-06T10:58:54;101408.47;;;22.72
71897;BMP280;59767;51.344;12.362;2022-08-06T11:05:16;101394.16;;;22.52
71897;BMP280;59767;51.344;12.362;2022-08-06T11:08:50;101398.63;;;22.63
71897;BMP280;59767;51.344;12.362;2022-08-06T11:15:40;101393.94;;;22.96
71897;BMP280;59767;51.344;12.362;2022-08-06T11:19:17;101396.66;;;23.01
71897;BMP280;59767;51.344;12.362;2022-08-06T11:22:39;101387.19;;;23.13
71897;BMP280;59767;51.344;12.362;2022-08-06T11:26:01;101384.66;;;23.06
71897;BMP280;59767;51.344;12.362;2022-08-06T11:29:09;101385.03;;;22.92
71897;BMP280;59767;51.344;12.362;2022-08-06T11:32:47;101381.75;;;23.03
71897;BMP280;59767;51.344;12.362;2022-08-06T11:35:53;101368.91;;;23.08
71897;BMP280;59767;51.344;12.362;2022-08-06T11:39:02;101376.78;;;23.01
71897;BMP280;59767;51.344;12.362;2022-08-06T11:42:40;101375.97;;;23.01
71897;BMP280;59767;51.344;12.362;2022-08-06T11:49:46;101371.69;;;22.95
71897;BMP280;59767;51.344;12.362;2022-08-06T11:52:51;101372.28;;;22.90
71897;BMP280;59767;51.344;12.362;2022-08-06T11:56:04;101383.97;;;22.99
71897;BMP280;59767;51.344;12.362;2022-08-06T11:59:14;101385.81;;;22.74
71897;BMP280;59767;51.344;12.362;2022-08-06T12:05:47;101380.16;;;23.20
71897;BMP280;59767;51.344;12.362;2022-08-06T12:09:08;101384.88;;;23.05
71897;BMP280;59767;51.344;12.362;2022-08-06T12:18:54;101390.81;;;22.69
71897;BMP280;59767;51.344;12.362;2022-08-06T12:21:59;101395.44;;;22.61
71897;BMP280;59767;51.344;12.362;2022-08-06T12:25:06;101379.72;;;22.87
71897;BMP280;59767;51.344;12.362;2022-08-06T12:28:17;101372.38;;;23.02
71897;BMP280;59767;51.344;12.362;2022-08-06T12:31:29;101371.16;;;23.04
71897;BMP280;59767;51.344;12.362;2022-08-06T12:34:48;101384.97;;;22.56
71897;BMP280;59767;51.344;12.362;2022-08-06T12:38:02;101381.50;;;22.13
71897;BMP280;59767;51.344;12.362;2022-08-06T12:41:08;101374.84;;;21.99
71897;BMP280;59767;51.344;12.362;2022-08-06T12:44:14;101367.69;;;22.01
71897;BMP280;59767;51.344;12.362;2022-08-06T12:47:39;101363.94;;;22.28
71897;BMP280;59767;51.344;12.362;2022-08-06T12:51:06;101354.44;;;22.22
71897;BMP280;59767;51.344;12.362;2022-08-06T12:54:14;101338.97;;;22.16
71897;BMP280;59767;51.344;12.362;2022-08-06T12:57:29;101352.53;;;22.36
71897;BMP280;59767;51.344;12.362;2022-08-06T13:00:56;101348.75;;;22.38
71897;BMP280;59767;51.344;12.362;2022-08-06T13:04:04;101346.91;;;22.45
71897;BMP280;59767;51.344;12.362;2022-08-06T13:07:14;101345.53;;;22.60
71897;BMP280;59767;51.344;12.362;2022-08-06T13:10:18;101342.84;;;22.56
71897;BMP280;59767;51.344;12.362;2022-08-06T13:13:50;101344.41;;;22.57
71897;BMP280;59767;51.344;12.362;2022-08-06T13:17:15;101357.88;;;22.41
71897;BMP280;59767;51.344;12.362;2022-08-06T13:20:43;101354.53;;;22.34
71897;BMP280;59767;51.344;12.362;2022-08-06T13:23:50;101355.06;;;22.42
71897;BMP280;59767;51.344;12.362;2022-08-06T13:26:56;101351.06;;;22.46
71897;BMP280;59767;51.344;12.362;2022-08-06T13:30:06;101355.06;;;22.42
71897;BMP280;59767;51.344;12.362;2022-08-06T13:33:30;101340.28;;;22.49
71897;BMP280;59767;51.344;12.362;2022-08-06T13:36:34;101348.88;;;22.67
71897;BMP280;59767;51.344;12.362;2022-08-06T13:39:52;101340.75;;;22.64
71897;BMP280;59767;51.344;12.362;2022-08-06T13:42:58;101336.09;;;22.72
71897;BMP280;59767;51.344;12.362;2022-08-06T13:49:10;101333.16;;;22.87
71897;BMP280;59767;51.344;12.362;2022-08-06T13:52:18;101329.56;;;22.70
71897;BMP280;59767;51.344;12.362;2022-08-06T13:55:23;101327.06;;;22.81
71897;BMP280;59767;51.344;12.362;2022-08-06T13:58:29;101338.34;;;22.87
71897;BMP280;59767;51.344;12.362;2022-08-06T14:01:33;101333.88;;;22.76
71897;BMP280;59767;51.344;12.362;2022-08-06T14:04:48;101326.00;;;22.71
71897;BMP280;59767;51.344;12.362;2022-08-06T14:07:54;101330.47;;;22.82
71897;BMP280;59767;51.344;12.362;2022-08-06T14:10:58;101325.41;;;22.87
71897;BMP280;59767;51.344;12.362;2022-08-06T14:14:02;101314.06;;;22.88
71897;BMP280;59767;51.344;12.362;2022-08-06T14:17:08;101313.91;;;22.83
71897;BMP280;59767;51.344;12.362;2022-08-06T14:20:13;101315.94;;;22.99
71897;BMP280;59767;51.344;12.362;2022-08-06T14:23:26;101315.69;;;23.00
71897;BMP280;59767;51.344;12.362;2022-08-06T14:26:43;101312.66;;;22.92
71897;BMP280;59767;51.344;12.362;2022-08-06T14:29:48;101330.47;;;22.82
71897;BMP280;59767;51.344;12.362;2022-08-06T14:33:12;101317.84;;;22.67
71897;BMP280;59767;51.344;12.362;2022-08-06T14:36:29;101315.41;;;22.55
71897;BMP280;59767;51.344;12.362;2022-08-06T14:39:41;101308.16;;;22.45
71897;BMP280;59767;51.344;12.362;2022-08-06T14:43:03;101309.16;;;22.44
71897;BMP280;59767;51.344;12.362;2022-08-06T14:46:29;101314.41;;;22.56
71897;BMP280;59767;51.344;12.362;2022-08-06T14:49:35;101307.13;;;22.46
71897;BMP280;59767;51.344;12.362;2022-08-06T14:52:54;101311.81;;;22.38
71897;BMP280;59767;51.344;12.362;2022-08-06T14:55:58;101306.09;;;22.29
71897;BMP280;59767;51.344;12.362;2022-08-06T14:59:11;101293.91;;;22.36
71897;BMP280;59767;51.344;12.362;2022-08-06T15:02:16;101299.97;;;22.48
71897;BMP280;59767;51.344;12.362;2022-08-06T15:05:21;101303.72;;;22.52
71897;BMP280;59767;51.344;12.362;2022-08-06T15:08:44;101294.44;;;22.63
71897;BMP280;59767;51.344;12.362;2022-08-06T15:11:52;101293.16;;;22.54
71897;BMP280;59767;51.344;12.362;2022-08-06T15:15:04;101292.50;;;22.58
71897;BMP280;59767;51.344;12.362;2022-08-06T15:18:17;101290.09;;;22.63
71897;BMP280;59767;51.344;12.362;2022-08-06T15:21:41;101284.38;;;22.90
71897;BMP280;59767;51.344;12.362;2022-08-06T15:24:56;101282.31;;;22.99
71897;BMP280;59767;51.344;12.362;2022-08-06T15:28:06;101279.03;;;22.74
71897;BMP280;59767;51.344;12.362;2022-08-06T15:31:13;101273.34;;;22.65
71897;BMP280;59767;51.344;12.362;2022-08-06T15:34:17;101275.41;;;22.57
71897;BMP280;59767;51.344;12.362;2022-08-06T15:37:30;101277.66;;;22.54
71897;BMP280;59767;51.344;12.362;2022-08-06T15:40:55;101276.84;;;22.53
71897;BMP280;59767;51.344;12.362;2022-08-06T15:43:59;101276.00;;;22.41
71897;BMP280;59767;51.344;12.362;2022-08-06T15:47:04;101284.88;;;22.45
71897;BMP280;59767;51.344;12.362;2022-08-06T15:50:08;101284.78;;;22.34
71897;BMP280;59767;51.344;12.362;2022-08-06T15:53:17;101283.31;;;22.44
71897;BMP280;59767;51.344;12.362;2022-08-06T15:56:27;101283.41;;;22.31
71897;BMP280;59767;51.344;12.362;2022-08-06T15:59:54;101275.63;;;22.38
71897;BMP280;59767;51.344;12.362;2022-08-06T16:02:58;101285.16;;;22.37
71897;BMP280;59767;51.344;12.362;2022-08-06T16:06:09;101288.38;;;22.33
71897;BMP280;59767;51.344;12.362;2022-08-06T16:09:28;101275.28;;;22.28
71897;BMP280;59767;51.344;12.362;2022-08-06T16:12:43;101286.50;;;22.22
71897;BMP280;59767;51.344;12.362;2022-08-06T16:15:50;101291.84;;;22.20
71897;BMP280;59767;51.344;12.362;2022-08-06T16:18:55;101274.47;;;22.09
71897;BMP280;59767;51.344;12.362;2022-08-06T16:22:01;101285.00;;;22.08
71897;BMP280;59767;51.344;12.362;2022-08-06T16:25:06;101283.78;;;22.10
71897;BMP280;59767;51.344;12.362;2022-08-06T16:28:14;101280.69;;;22.02
71897;BMP280;59767;51.344;12.362;2022-08-06T16:31:29;101282.72;;;22.00
71897;BMP280;59767;51.344;12.362;2022-08-06T16:34:50;101285.13;;;21.95
71897;BMP280;59767;51.344;12.362;2022-08-06T16:38:00;101278.00;;;21.90
71897;BMP280;59767;51.344;12.362;2022-08-06T16:41:04;101279.94;;;21.95
71897;BMP280;59767;51.344;12.362;2022-08-06T16:44:11;101275.91;;;21.81
71897;BMP280;59767;51.344;12.362;2022-08-06T16:47:16;101275.28;;;21.79
71897;BMP280;59767;51.344;12.362;2022-08-06T16:50:22;101273.25;;;21.87
71897;BMP280;59767;51.344;12.362;2022-08-06T16:53:30;101273.31;;;21.81
71897;BMP280;59767;51.344;12.362;2022-08-06T16:56:54;101281.25;;;21.79
71897;BMP280;59767;51.344;12.362;2022-08-06T17:00:04;101277.53;;;21.69
71897;BMP280;59767;51.344;12.362;2022-08-06T17:03:09;101280.31;;;21.67
71897;BMP280;59767;51.344;12.362;2022-08-06T17:06:14;101275.34;;;21.72
71897;BMP280;59767;51.344;12.362;2022-08-06T17:09:20;101275.56;;;21.64
71897;BMP280;59767;51.344;12.362;2022-08-06T17:12:24;101277.94;;;21.66
71897;BMP280;59767;51.344;12.362;2022-08-06T17:15:29;101277.78;;;21.61
71897;BMP280;59767;51.344;12.362;2022-08-06T17:18:40;101273.81;;;21.58
71897;BMP280;59767;51.344;12.362;2022-08-06T17:21:52;101277.44;;;21.57
71897;BMP280;59767;51.344;12.362;2022-08-06T17:25:04;101285.38;;;21.56
71897;BMP280;59767;51.344;12.362;2022-08-06T17:28:09;101275.09;;;21.49
71897;BMP280;59767;51.344;12.362;2022-08-06T17:31:17;101281.22;;;21.48
71897;BMP280;59767;51.344;12.362;2022-08-06T17:34:41;101276.63;;;21.50
71897;BMP280;59767;51.344;12.362;2022-08-06T17:37:51;101288.00;;;21.49
71897;BMP280;59767;51.344;12.362;2022-08-06T17:40:55;101274.75;;;21.33
71897;BMP280;59767;51.344;12.362;2022-08-06T17:44:01;101278.31;;;21.38
71897;BMP280;59767;51.344;12.362;2022-08-06T17:47:05;101299.34;;;21.35
71897;BMP280;59767;51.344;12.362;2022-08-06T17:50:13;101299.59;;;21.34
71897;BMP280;59767;51.344;12.362;2022-08-06T17:53:19;101293.00;;;21.38
71897;BMP280;59767;51.344;12.362;2022-08-06T17:56:25;101303.72;;;21.35
71897;BMP280;59767;51.344;12.362;2022-08-06T17:59:33;101300.16;;;21.23
71897;BMP280;59767;51.344;12.362;2022-08-06T18:02:47;101299.84;;;21.13
71897;BMP280;59767;51.344;12.362;2022-08-06T18:05:55;101301.81;;;21.17
71897;BMP280;59767;51.344;12.362;2022-08-06T18:08:59;101296.66;;;21.11
71897;BMP280;59767;51.344;12.362;2022-08-06T18:12:24;101308.97;;;21.09
71897;BMP280;59767;51.344;12.362;2022-08-06T18:15:30;101304.81;;;21.14
71897;BMP280;59767;51.344;12.362;2022-08-06T18:18:44;101311.97;;;21.06
71897;BMP280;59767;51.344;12.362;2022-08-06T18:21:50;101316.94;;;20.94
71897;BMP280;59767;51.344;12.362;2022-08-06T18:24:55;101315.34;;;20.87
71897;BMP280;59767;51.344;12.362;2022-08-06T18:28:01;101317.53;;;20.83
71897;BMP280;59767;51.344;12.362;2022-08-06T18:31:08;101311.81;;;20.81
71897;BMP280;59767;51.344;12.362;2022-08-06T18:34:13;101319.34;;;20.76
71897;BMP280;59767;51.344;12.362;2022-08-06T18:37:21;101321.34;;;20.74
71897;BMP280;59767;51.344;12.362;2022-08-06T18:40:33;101318.34;;;20.71
71897;BMP280;59767;51.344;12.362;2022-08-06T18:43:46;101324.72;;;20.68
71897;BMP280;59767;51.344;12.362;2022-08-06T18:46:58;101322.94;;;20.62
71897;BMP280;59767;51.344;12.362;2022-08-06T18:50:15;101323.72;;;20.56